Time;durP1;ratioP1;P1;durP2;ratioP2;P2;SDS_P1;SDS_P2;PMS_P1;PMS_P2;Temp;Humidity;BMP_temperature;BMP_pressure;BME280_temperature;BME280_humidity;BME280_pressure;Samples;Min_cycle;Max_cycle;Signal;HPM_P1;HPM_P2
2022/04/15 00:02:10;;;;;;;;;;;13.60;54.50;;;;;;5070017;27;86961;-50
2022/04/15 00:04:36;;;;;;;;;;;13.60;54.50;;;;;;5069452;27;88497;-50
2022/04/15 00:07:02;;;;;;;;;;;13.60;54.60;;;;;;5069013;27;88121;-50
2022/04/15 00:09:30;;;;;;;;;;;13.50;54.50;;;;;;5069543;27;89771;-49
2022/04/15 00:11:56;;;;;;;;;;;13.50;54.60;;;;;;5069039;27;87692;-49
2022/04/15 00:14:22;;;;;;;;;;;13.50;54.50;;;;;;5069534;27;87095;-50
2022/04/15 00:16:48;;;;;;;;;;;13.50;54.50;;;;;;5071897;27;86956;-49
2022/04/15 00:19:14;;;;;;;;;;;13.50;54.60;;;;;;5069407;27;86867;-50
2022/04/15 00:21:40;;;;;;;;;;;13.50;54.50;;;;;;5069471;27;88096;-50
2022/04/15 00:24:06;;;;;;;;;;;13.40;54.50;;;;;;5069476;27;88030;-50
2022/04/15 00:26:32;;;;;;;;;;;13.40;54.50;;;;;;5069444;27;86922;-50
2022/04/15 00:28:58;;;;;;;;;;;13.40;54.50;;;;;;5069324;27;87865;-50
2022/04/15 00:31:24;;;;;;;;;;;13.40;54.60;;;;;;5068155;27;89797;-50
2022/04/15 00:33:49;;;;;;;;;;;13.40;54.60;;;;;;5069579;27;86867;-50
2022/04/15 00:36:15;;;;;;;;;;;13.40;54.50;;;;;;5071792;27;88023;-50
2022/04/15 00:38:41;;;;;;;;;;;13.40;54.60;;;;;;5069210;27;87140;-50
2022/04/15 00:41:06;;;;;;;;;;;13.30;54.60;;;;;;5069676;27;86859;-50
2022/04/15 00:43:32;;;;;;;;;;;13.30;54.50;;;;;;5068614;27;87655;-50
2022/04/15 00:46:04;;;;;;;;;;;13.30;54.50;;;;;;5069065;27;86890;-50
2022/04/15 00:48:30;;;;;;;;;;;13.30;54.50;;;;;;5069721;27;86213;-50
2022/04/15 00:50:56;;;;;;;;;;;13.30;54.50;;;;;;5068783;27;87680;-50
2022/04/15 00:53:23;;;;;;;;;;;13.30;54.50;;;;;;5069369;27;86848;-50
2022/04/15 00:55:51;;;;;;;;;;;13.20;54.60;;;;;;5068266;27;88170;-50
2022/04/15 00:58:18;;;;;;;;;;;13.20;54.50;;;;;;5071437;27;87843;-51
2022/04/15 01:00:45;;;;;;;;;;;13.20;54.60;;;;;;5068893;27;87075;-50
2022/04/15 01:03:15;;;;;;;;;;;13.20;54.60;;;;;;5068666;27;87422;-50
2022/04/15 01:05:41;;;;;;;;;;;13.10;54.60;;;;;;5068883;27;87231;-49
2022/04/15 01:08:08;;;;;;;;;;;13.10;54.60;;;;;;5069008;27;87146;-50
2022/04/15 01:10:35;;;;;;;;;;;13.10;54.70;;;;;;5068323;27;88554;-50
2022/04/15 01:13:04;;;;;;;;;;;13.10;54.60;;;;;;5069354;27;86150;-50
2022/04/15 01:15:29;;;;;;;;;;;13.10;54.60;;;;;;5068336;27;86833;-49
2022/04/15 01:17:55;;;;;;;;;;;13.10;54.60;;;;;;5068468;27;86939;-49
2022/04/15 01:20:21;;;;;;;;;;;13.00;54.50;;;;;;5070987;27;87975;-50
2022/04/15 01:23:07;;;;;;;;;;;13.00;54.60;;;;;;5068434;27;87524;-51
2022/04/15 01:25:33;;;;;;;;;;;13.00;54.70;;;;;;5068003;27;87186;-49
2022/04/15 01:27:59;;;;;;;;;;;13.00;54.60;;;;;;5068426;27;87765;-50
2022/04/15 01:30:24;;;;;;;;;;;13.00;54.70;;;;;;5068107;27;87642;-50
2022/04/15 01:32:50;;;;;;;;;;;13.00;54.70;;;;;;5068453;27;86906;-50
2022/04/15 01:35:17;;;;;;;;;;;12.90;54.60;;;;;;5068040;27;87441;-50
2022/04/15 01:37:43;;;;;;;;;;;12.90;54.80;;;;;;5068291;27;87475;-50
2022/04/15 01:40:10;;;;;;;;;;;12.90;54.70;;;;;;5068463;27;87041;-50
2022/04/15 01:42:37;;;;;;;;;;;12.90;54.70;;;;;;5070850;27;87153;-50
2022/04/15 01:47:49;;;;;;;;;;;12.80;54.80;;;;;;5068220;27;87491;-50
2022/04/15 01:50:15;;;;;;;;;;;12.80;54.70;;;;;;5067012;27;88626;-49
2022/04/15 01:52:41;;;;;;;;;;;12.80;54.80;;;;;;5068209;27;86871;-50
2022/04/15 01:55:08;;;;;;;;;;;12.80;54.80;;;;;;5067680;27;87307;-50
2022/04/15 01:57:35;;;;;;;;;;;12.70;54.80;;;;;;5067810;27;86832;-50
2022/04/15 02:00:01;;;;;;;;;;;12.70;54.80;;;;;;5068223;27;86819;-50
2022/04/15 02:02:27;;;;;;;;;;;12.70;54.70;;;;;;5068411;27;88032;-49
2022/04/15 02:04:52;;;;;;;;;;;12.70;54.70;;;;;;5070391;27;88056;-50
2022/04/15 02:07:18;;;;;;;;;;;12.70;54.70;;;;;;5067890;27;88103;-50
2022/04/15 02:09:44;;;;;;;;;;;12.60;54.80;;;;;;5066717;27;89926;-51
2022/04/15 02:12:10;;;;;;;;;;;12.60;54.60;;;;;;5067630;27;86891;-49
2022/04/15 02:14:35;;;;;;;;;;;12.60;54.70;;;;;;5067671;27;87635;-49
2022/04/15 02:17:01;;;;;;;;;;;12.60;54.80;;;;;;5066982;27;87682;-50
2022/04/15 02:19:27;;;;;;;;;;;12.60;54.90;;;;;;5067619;27;87059;-49
2022/04/15 02:21:52;;;;;;;;;;;12.50;54.80;;;;;;5067736;27;87054;-50
2022/04/15 02:24:18;;;;;;;;;;;12.60;54.90;;;;;;5067390;27;87443;-50
2022/04/15 02:26:44;;;;;;;;;;;12.50;54.80;;;;;;5070930;27;86241;-50
2022/04/15 02:29:10;;;;;;;;;;;12.50;54.90;;;;;;5067328;27;87191;-50
2022/04/15 02:31:36;;;;;;;;;;;12.50;54.90;;;;;;5067438;27;86880;-49
2022/04/15 02:34:02;;;;;;;;;;;12.40;54.90;;;;;;5066783;27;88016;-50
2022/04/15 02:36:27;;;;;;;;;;;12.40;54.90;;;;;;5067035;27;88478;-49
2022/04/15 02:38:53;;;;;;;;;;;12.40;54.80;;;;;;5067318;27;86874;-50
2022/04/15 02:41:19;;;;;;;;;;;12.40;55.00;;;;;;5067599;27;87066;-50
2022/04/15 02:43:45;;;;;;;;;;;12.40;54.90;;;;;;5066876;27;87615;-50
2022/04/15 02:46:12;;;;;;;;;;;12.40;54.90;;;;;;5070386;27;87016;-49
2022/04/15 02:48:38;;;;;;;;;;;12.40;54.90;;;;;;5066753;27;88467;-49
2022/04/15 02:51:04;;;;;;;;;;;12.40;54.90;;;;;;5067591;27;86131;-49
2022/04/15 02:53:30;;;;;;;;;;;12.30;54.90;;;;;;5067354;27;86951;-49
2022/04/15 02:55:56;;;;;;;;;;;12.30;54.90;;;;;;5066661;27;88394;-49
2022/04/15 02:58:22;;;;;;;;;;;12.30;54.90;;;;;;5066330;27;87891;-49
2022/04/15 03:00:48;;;;;;;;;;;12.20;54.90;;;;;;5066944;27;89044;-49
2022/04/15 03:03:14;;;;;;;;;;;12.20;54.90;;;;;;5065780;27;87534;-50
2022/04/15 03:05:39;;;;;;;;;;;12.30;54.90;;;;;;5067189;27;86906;-49
2022/04/15 03:08:05;;;;;;;;;;;12.20;54.90;;;;;;5069401;27;88034;-50
2022/04/15 03:10:31;;;;;;;;;;;12.20;54.90;;;;;;5066899;27;86992;-50
2022/04/15 03:12:57;;;;;;;;;;;12.20;54.90;;;;;;5066719;27;87259;-50
2022/04/15 03:15:22;;;;;;;;;;;12.20;54.90;;;;;;5066611;27;87949;-50
2022/04/15 03:17:48;;;;;;;;;;;12.10;54.90;;;;;;5066765;27;86957;-49
2022/04/15 03:20:13;;;;;;;;;;;12.10;54.90;;;;;;5066992;27;86871;-50
2022/04/15 03:22:41;;;;;;;;;;;12.10;54.90;;;;;;5065807;27;88323;-50
2022/04/15 03:25:08;;;;;;;;;;;12.10;54.80;;;;;;5066541;27;86865;-50
2022/04/15 03:27:34;;;;;;;;;;;12.10;54.90;;;;;;5066620;27;87703;-50
2022/04/15 03:30:00;;;;;;;;;;;12.00;55.00;;;;;;5069391;27;87433;-50
2022/04/15 03:32:26;;;;;;;;;;;12.00;54.90;;;;;;5066469;27;87075;-51
2022/04/15 03:34:52;;;;;;;;;;;12.00;55.50;;;;;;5066332;27;87276;-50
2022/04/15 03:37:18;;;;;;;;;;;12.00;55.10;;;;;;5066410;27;86901;-50
2022/04/15 03:39:43;;;;;;;;;;;12.00;55.10;;;;;;5067245;27;87259;-50
2022/04/15 03:42:09;;;;;;;;;;;12.00;55.00;;;;;;5066355;27;87516;-50
2022/04/15 03:44:35;;;;;;;;;;;12.00;55.10;;;;;;5066340;27;86874;-49
2022/04/15 03:47:01;;;;;;;;;;;11.90;55.00;;;;;;5065878;27;87801;-50
2022/04/15 03:49:27;;;;;;;;;;;11.90;55.00;;;;;;5065935;27;87624;-50
2022/04/15 03:51:53;;;;;;;;;;;11.90;55.00;;;;;;5069117;27;86849;-50
2022/04/15 03:54:18;;;;;;;;;;;11.90;55.00;;;;;;5065858;27;88728;-50
2022/04/15 03:56:46;;;;;;;;;;;11.90;55.00;;;;;;5066422;27;86930;-50
2022/04/15 03:59:12;;;;;;;;;;;11.80;55.00;;;;;;5066303;27;87209;-50
2022/04/15 04:01:38;;;;;;;;;;;11.80;55.00;;;;;;5065888;27;88510;-50
2022/04/15 04:04:04;;;;;;;;;;;11.80;55.00;;;;;;5066984;27;86184;-50
2022/04/15 04:06:30;;;;;;;;;;;11.80;55.10;;;;;;5066591;27;86911;-50
2022/04/15 04:08:56;;;;;;;;;;;11.80;55.10;;;;;;5065661;27;88316;-50
2022/04/15 04:11:21;;;;;;;;;;;11.80;55.10;;;;;;5065683;27;87873;-50
2022/04/15 04:13:47;;;;;;;;;;;11.80;55.10;;;;;;5069787;27;87691;-50
2022/04/15 04:16:13;;;;;;;;;;;11.80;55.10;;;;;;5069219;27;86837;-50
2022/04/15 04:18:39;;;;;;;;;;;11.70;55.10;;;;;;5069536;27;86994;-50
2022/04/15 04:21:05;;;;;;;;;;;11.70;55.10;;;;;;5069046;27;88653;-50
2022/04/15 04:23:31;;;;;;;;;;;11.70;55.20;;;;;;5069427;27;86919;-50
2022/04/15 04:25:56;;;;;;;;;;;11.70;55.00;;;;;;5069446;27;86882;-50
2022/04/15 04:28:22;;;;;;;;;;;11.60;55.10;;;;;;5069469;27;87866;-50
2022/04/15 04:30:47;;;;;;;;;;;11.60;55.10;;;;;;5069414;27;86848;-49
2022/04/15 04:33:13;;;;;;;;;;;11.70;55.10;;;;;;5072011;27;86734;-49
2022/04/15 04:35:39;;;;;;;;;;;11.60;55.20;;;;;;5068988;27;87988;-49
2022/04/15 04:38:05;;;;;;;;;;;11.60;55.20;;;;;;5069271;27;89065;-50
2022/04/15 04:40:32;;;;;;;;;;;11.60;55.10;;;;;;5069164;27;87970;-50
2022/04/15 04:42:58;;;;;;;;;;;11.60;55.10;;;;;;5069154;27;86860;-49
2022/04/15 04:45:24;;;;;;;;;;;11.60;55.10;;;;;;5069158;27;86817;-49
2022/04/15 04:47:50;;;;;;;;;;;11.60;55.20;;;;;;5069031;27;86787;-49
2022/04/15 04:50:17;;;;;;;;;;;11.50;55.20;;;;;;5069306;27;86853;-49
2022/04/15 04:52:42;;;;;;;;;;;11.50;55.10;;;;;;5069398;27;88049;-49
2022/04/15 04:55:08;;;;;;;;;;;11.50;55.10;;;;;;5071489;27;88424;-50
2022/04/15 04:57:34;;;;;;;;;;;11.50;55.10;;;;;;5068993;27;86944;-49
2022/04/15 05:00:00;;;;;;;;;;;11.50;55.20;;;;;;5067911;27;88649;-49
2022/04/15 05:02:25;;;;;;;;;;;11.50;55.30;;;;;;5068860;27;86838;-50
2022/04/15 05:04:51;;;;;;;;;;;11.40;55.20;;;;;;5068881;27;87869;-49
2022/04/15 05:07:17;;;;;;;;;;;11.40;55.20;;;;;;5068320;27;88500;-49
2022/04/15 05:09:43;;;;;;;;;;;11.50;55.20;;;;;;5069059;27;86889;-49
2022/04/15 05:12:09;;;;;;;;;;;11.50;55.20;;;;;;5068673;27;87937;-49
2022/04/15 05:14:35;;;;;;;;;;;11.40;55.30;;;;;;5068325;27;88511;-49
2022/04/15 05:17:00;;;;;;;;;;;11.40;55.30;;;;;;5071877;27;86394;-50
2022/04/15 05:19:26;;;;;;;;;;;11.40;55.30;;;;;;5068134;27;88434;-50
2022/04/15 05:21:53;;;;;;;;;;;11.40;55.30;;;;;;5068993;27;86824;-49
2022/04/15 05:24:18;;;;;;;;;;;11.40;55.40;;;;;;5067871;27;88094;-50
2022/04/15 05:26:44;;;;;;;;;;;11.40;55.30;;;;;;5067153;27;88629;-49
2022/04/15 05:29:10;;;;;;;;;;;11.40;55.30;;;;;;5068654;27;87075;-50
2022/04/15 05:31:35;;;;;;;;;;;11.40;55.40;;;;;;5068279;27;87249;-49
2022/04/15 05:34:01;;;;;;;;;;;11.40;55.30;;;;;;5067963;27;88834;-49
2022/04/15 05:36:27;;;;;;;;;;;11.40;55.30;;;;;;5068328;27;86872;-49
2022/04/15 05:38:53;;;;;;;;;;;11.40;55.40;;;;;;5071079;27;86860;-49
2022/04/15 05:41:18;;;;;;;;;;;11.40;55.40;;;;;;5068831;27;86090;-49
2022/04/15 05:43:46;;;;;;;;;;;11.30;55.30;;;;;;5068233;27;86869;-49
2022/04/15 05:46:12;;;;;;;;;;;11.40;55.30;;;;;;5067832;27;88667;-49
2022/04/15 05:48:38;;;;;;;;;;;11.40;55.30;;;;;;5067489;27;87780;-49
2022/04/15 05:51:04;;;;;;;;;;;11.40;55.90;;;;;;5068223;27;87089;-49
2022/04/15 05:53:29;;;;;;;;;;;11.40;55.40;;;;;;5067716;27;88540;-49
2022/04/15 05:55:56;;;;;;;;;;;11.40;55.70;;;;;;5068111;27;86800;-50
2022/04/15 05:58:22;;;;;;;;;;;11.40;55.30;;;;;;5067667;27;87181;-49
2022/04/15 06:00:47;;;;;;;;;;;11.40;55.40;;;;;;5070820;27;87544;-49
2022/04/15 06:03:13;;;;;;;;;;;11.30;55.40;;;;;;5068324;27;86840;-50
2022/04/15 06:05:39;;;;;;;;;;;11.30;55.50;;;;;;5067918;27;87678;-50
2022/04/15 06:08:04;;;;;;;;;;;11.30;55.50;;;;;;5068019;27;86952;-50
2022/04/15 06:10:30;;;;;;;;;;;11.40;55.40;;;;;;5067847;27;86860;-50
2022/04/15 06:13:19;;;;;;;;;;;11.40;55.30;;;;;;5066565;27;89577;-49
2022/04/15 06:15:53;;;;;;;;;;;11.40;55.40;;;;;;5067396;27;86947;-50
2022/04/15 06:18:19;;;;;;;;;;;11.40;55.40;;;;;;5067603;27;87902;-50
2022/04/15 06:20:45;;;;;;;;;;;11.40;55.40;;;;;;5067422;27;87676;-50
2022/04/15 06:23:11;;;;;;;;;;;11.40;55.50;;;;;;5070431;27;86798;-50
2022/04/15 06:25:36;;;;;;;;;;;11.40;55.50;;;;;;5067172;27;89063;-50
2022/04/15 06:28:02;;;;;;;;;;;11.40;55.50;;;;;;5067463;27;86987;-50
2022/04/15 06:30:28;;;;;;;;;;;11.40;55.60;;;;;;5068282;27;86094;-49
2022/04/15 06:32:54;;;;;;;;;;;11.30;55.50;;;;;;5067141;27;86982;-50
2022/04/15 06:35:20;;;;;;;;;;;11.30;55.50;;;;;;5067446;27;87030;-49
2022/04/15 06:37:46;;;;;;;;;;;11.40;55.60;;;;;;5066545;27;88095;-50
2022/04/15 06:40:11;;;;;;;;;;;11.30;55.60;;;;;;5066885;27;88678;-50
2022/04/15 06:42:38;;;;;;;;;;;11.30;55.70;;;;;;5070175;27;86850;-50
2022/04/15 06:45:04;;;;;;;;;;;11.30;55.70;;;;;;5066800;27;87661;-50
2022/04/15 06:47:30;;;;;;;;;;;11.30;55.60;;;;;;5067384;27;86989;-50
2022/04/15 06:49:56;;;;;;;;;;;11.40;55.60;;;;;;5067182;27;88056;-49
2022/04/15 06:52:22;;;;;;;;;;;11.30;55.70;;;;;;5066588;27;88005;-50
2022/04/15 06:54:48;;;;;;;;;;;11.40;55.70;;;;;;5067624;27;86179;-51
2022/04/15 06:57:14;;;;;;;;;;;11.40;55.70;;;;;;5067401;27;87110;-50
2022/04/15 06:59:39;;;;;;;;;;;11.40;55.70;;;;;;5066648;27;88776;-50
2022/04/15 07:02:05;;;;;;;;;;;11.40;55.70;;;;;;5066702;27;87893;-50
2022/04/15 07:04:34;;;;;;;;;;;11.40;55.80;;;;;;5069422;27;88799;-50
2022/04/15 07:07:00;;;;;;;;;;;11.40;55.80;;;;;;5066900;27;86885;-50
2022/04/15 07:09:26;;;;;;;;;;;11.40;55.80;;;;;;5067170;27;86840;-51
2022/04/15 07:11:52;;;;;;;;;;;11.40;55.80;;;;;;5066350;27;87627;-50
2022/04/15 07:14:17;;;;;;;;;;;11.40;55.70;;;;;;5067314;27;86929;-50
2022/04/15 07:16:43;;;;;;;;;;;11.40;55.70;;;;;;5066398;27;87976;-50
2022/04/15 07:19:09;;;;;;;;;;;11.40;55.80;;;;;;5067083;27;86746;-50
2022/04/15 07:21:35;;;;;;;;;;;11.40;55.80;;;;;;5066833;27;86823;-50
2022/04/15 07:24:01;;;;;;;;;;;11.40;55.80;;;;;;5066638;27;88160;-50
2022/04/15 07:26:27;;;;;;;;;;;11.40;55.80;;;;;;5068618;27;89418;-51
2022/04/15 07:28:52;;;;;;;;;;;11.40;55.90;;;;;;5066746;27;88782;-50
2022/04/15 07:31:18;;;;;;;;;;;11.40;55.90;;;;;;5066159;27;88606;-49
2022/04/15 07:33:46;;;;;;;;;;;11.40;55.90;;;;;;5066497;27;87108;-50
2022/04/15 07:36:43;;;;;;;;;;;11.40;55.80;;;;;;5066574;27;87096;-49
2022/04/15 07:39:14;;;;;;;;;;;11.40;55.90;;;;;;5066095;27;88354;-50
2022/04/15 07:41:40;;;;;;;;;;;11.50;55.90;;;;;;5066454;27;87003;-50
2022/04/15 07:44:06;;;;;;;;;;;11.50;55.90;;;;;;5066908;27;88047;-50
2022/04/15 07:46:32;;;;;;;;;;;11.50;55.90;;;;;;5066408;27;87425;-50
2022/04/15 07:48:58;;;;;;;;;;;11.50;55.90;;;;;;5070651;27;87033;-51
2022/04/15 07:51:24;;;;;;;;;;;11.50;55.90;;;;;;5068835;27;89552;-50
2022/04/15 07:53:49;;;;;;;;;;;11.50;55.90;;;;;;5070222;27;86764;-50
2022/04/15 07:56:15;;;;;;;;;;;11.50;55.80;;;;;;5070021;27;87942;-49
2022/04/15 07:58:41;;;;;;;;;;;11.50;55.90;;;;;;5069526;27;88435;-50
2022/04/15 08:01:07;;;;;;;;;;;11.50;55.90;;;;;;5069962;27;86972;-50
2022/04/15 08:03:33;;;;;;;;;;;11.50;56.00;;;;;;5069795;27;88159;-50
2022/04/15 08:05:59;;;;;;;;;;;11.50;56.00;;;;;;5069425;27;88642;-50
2022/04/15 08:08:25;;;;;;;;;;;11.50;56.10;;;;;;5070276;27;86157;-50
2022/04/15 08:10:53;;;;;;;;;;;11.50;56.20;;;;;;5072622;27;86949;-50
2022/04/15 08:13:19;;;;;;;;;;;11.50;56.10;;;;;;5069522;27;87109;-50
2022/04/15 08:15:45;;;;;;;;;;;11.60;56.10;;;;;;5068765;27;87945;-50
2022/04/15 08:18:11;;;;;;;;;;;11.60;56.20;;;;;;5069133;27;88630;-50
2022/04/15 08:20:36;;;;;;;;;;;11.50;56.10;;;;;;5069823;27;87256;-50
2022/04/15 08:23:03;;;;;;;;;;;11.50;56.10;;;;;;5069926;27;86866;-50
2022/04/15 08:25:30;;;;;;;;;;;11.50;56.10;;;;;;5068517;27;88514;-50
2022/04/15 08:27:55;;;;;;;;;;;11.60;56.20;;;;;;5069342;27;86916;-50
2022/04/15 08:30:21;;;;;;;;;;;11.60;56.20;;;;;;5069065;27;86866;-50
2022/04/15 08:32:51;;;;;;;;;;;11.60;56.10;;;;;;5072635;27;86519;-50
2022/04/15 08:35:17;;;;;;;;;;;11.60;56.20;;;;;;5069422;27;87102;-50
2022/04/15 08:37:42;;;;;;;;;;;11.60;56.20;;;;;;5068953;27;87432;-50
2022/04/15 08:40:11;;;;;;;;;;;11.60;56.30;;;;;;5068095;27;87828;-50
2022/04/15 08:42:37;;;;;;;;;;;11.60;56.30;;;;;;5069011;27;89112;-50
2022/04/15 08:45:02;;;;;;;;;;;11.60;56.40;;;;;;5068837;27;88589;-50
2022/04/15 08:47:29;;;;;;;;;;;11.60;56.40;;;;;;5069172;27;86964;-51
2022/04/15 08:49:55;;;;;;;;;;;11.60;56.40;;;;;;5068730;27;87951;-50
2022/04/15 08:52:22;;;;;;;;;;;11.70;56.30;;;;;;5071396;27;87786;-50
2022/04/15 08:54:48;;;;;;;;;;;11.70;56.30;;;;;;5069357;27;86823;-50
2022/04/15 08:57:14;;;;;;;;;;;11.70;56.40;;;;;;5069068;27;87595;-50
2022/04/15 08:59:40;;;;;;;;;;;11.70;56.40;;;;;;5068196;27;86834;-50
2022/04/15 09:02:07;;;;;;;;;;;11.70;56.30;;;;;;5068320;27;86919;-51
2022/04/15 09:04:32;;;;;;;;;;;11.70;56.30;;;;;;5068097;27;87992;-50
2022/04/15 09:07:00;;;;;;;;;;;11.70;56.40;;;;;;5068187;27;86847;-50
2022/04/15 09:09:32;;;;;;;;;;;11.70;56.30;;;;;;5068091;27;88085;-50
2022/04/15 09:12:04;;;;;;;;;;;11.70;56.40;;;;;;5068545;27;87651;-50
2022/04/15 09:14:29;;;;;;;;;;;11.70;56.40;;;;;;5071051;27;86950;-50
2022/04/15 09:16:55;;;;;;;;;;;11.70;56.40;;;;;;5067902;27;88515;-50
2022/04/15 09:19:21;;;;;;;;;;;11.80;56.40;;;;;;5068708;27;87019;-50
2022/04/15 09:21:53;;;;;;;;;;;11.80;56.40;;;;;;5069125;27;87918;-50
2022/04/15 09:24:31;;;;;;;;;;;11.80;56.40;;;;;;5068061;27;88563;-50
2022/04/15 09:26:57;;;;;;;;;;;11.80;56.40;;;;;;5068461;27;86898;-50
2022/04/15 09:29:25;;;;;;;;;;;11.80;56.40;;;;;;5067410;27;87759;-50
2022/04/15 09:31:54;;;;;;;;;;;11.90;56.40;;;;;;5067903;27;88640;-51
2022/04/15 09:34:19;;;;;;;;;;;11.90;56.40;;;;;;5068412;27;86897;-50
2022/04/15 09:36:46;;;;;;;;;;;11.90;56.40;;;;;;5071165;27;86918;-50
2022/04/15 09:39:14;;;;;;;;;;;11.90;56.40;;;;;;5068608;27;86812;-50
2022/04/15 09:41:41;;;;;;;;;;;11.90;56.40;;;;;;5068321;27;87865;-50
2022/04/15 09:44:10;;;;;;;;;;;11.90;56.40;;;;;;5067887;27;88561;-50
2022/04/15 09:46:36;;;;;;;;;;;12.00;56.50;;;;;;5068425;27;86484;-51
2022/04/15 09:49:03;;;;;;;;;;;12.00;56.50;;;;;;5068241;27;87411;-50
2022/04/15 09:51:31;;;;;;;;;;;12.00;56.50;;;;;;5067675;27;88651;-50
2022/04/15 09:54:01;;;;;;;;;;;12.00;56.50;;;;;;5067307;27;87877;-50
2022/04/15 09:56:27;;;;;;;;;;;12.00;56.50;;;;;;5067650;27;89052;-50
2022/04/15 09:58:56;;;;;;;;;;;12.10;56.60;;;;;;5070801;27;87341;-51
2022/04/15 10:01:26;;;;;;;;;;;12.10;56.60;;;;;;5067996;27;88010;-51
2022/04/15 10:03:54;;;;;;;;;;;12.10;56.60;;;;;;5067291;27;88687;-50
2022/04/15 10:06:20;;;;;;;;;;;12.10;56.50;;;;;;5067896;27;86883;-50
2022/04/15 10:08:46;;;;;;;;;;;12.20;56.50;;;;;;5067674;27;87820;-50
2022/04/15 10:11:12;;;;;;;;;;;12.20;56.60;;;;;;5067287;27;86712;-50
2022/04/15 10:13:39;;;;;;;;;;;12.20;56.60;;;;;;5067979;27;88633;-50
2022/04/15 10:16:05;;;;;;;;;;;12.20;56.60;;;;;;5067342;27;87345;-50
2022/04/15 10:18:31;;;;;;;;;;;12.20;56.50;;;;;;5066466;27;89648;-50
2022/04/15 10:20:59;;;;;;;;;;;12.30;56.60;;;;;;5070617;27;86980;-50
2022/04/15 10:23:25;;;;;;;;;;;12.30;56.50;;;;;;5067168;27;87666;-50
2022/04/15 10:25:52;;;;;;;;;;;12.30;56.50;;;;;;5067829;27;86850;-50
2022/04/15 10:28:19;;;;;;;;;;;12.30;56.50;;;;;;5067060;27;87197;-50
2022/04/15 10:30:52;;;;;;;;;;;12.30;56.50;;;;;;5067340;27;87757;-50
2022/04/15 10:33:30;;;;;;;;;;;12.40;56.60;;;;;;5066980;27;87160;-50
2022/04/15 10:36:13;;;;;;;;;;;12.40;56.60;;;;;;5067955;27;87852;-50
2022/04/15 10:38:57;;;;;;;;;;;12.40;57.00;;;;;;5066803;27;90546;-50
2022/04/15 10:41:23;;;;;;;;;;;12.40;57.10;;;;;;5067280;27;86988;-50
2022/04/15 10:43:57;;;;;;;;;;;12.50;56.80;;;;;;5068832;27;88109;-50
2022/04/15 10:46:35;;;;;;;;;;;12.50;56.70;;;;;;5067536;27;86861;-51
2022/04/15 10:49:01;;;;;;;;;;;12.50;56.50;;;;;;5067160;27;88151;-50
2022/04/15 10:51:30;;;;;;;;;;;12.50;56.50;;;;;;5065983;27;88502;-50
2022/04/15 10:54:23;;;;;;;;;;;12.60;56.50;;;;;;5067086;27;86931;-50
2022/04/15 10:57:01;;;;;;;;;;;12.60;56.40;;;;;;5062816;27;88058;-50
2022/04/15 11:02:18;;;;;;;;;;;12.70;56.40;;;;;;5064539;27;86100;-51
2022/04/15 11:04:47;;;;;;;;;;;12.70;56.40;;;;;;5069623;27;86884;-50
2022/04/15 11:07:33;;;;;;;;;;;12.70;56.40;;;;;;5066485;27;86953;-51
2022/04/15 11:09:59;;;;;;;;;;;12.70;56.30;;;;;;5052036;27;87930;-50
2022/04/15 11:12:44;;;;;;;;;;;12.70;56.40;;;;;;5066153;27;87584;-50
2022/04/15 11:15:10;;;;;;;;;;;12.80;56.40;;;;;;5066585;27;86882;-50
2022/04/15 11:17:39;;;;;;;;;;;12.80;56.30;;;;;;5067014;27;87344;-51
2022/04/15 11:20:08;;;;;;;;;;;12.90;56.30;;;;;;5066584;27;87398;-51
2022/04/15 11:22:38;;;;;;;;;;;12.90;56.20;;;;;;5066351;27;87157;-52
2022/04/15 11:25:05;;;;;;;;;;;12.90;56.20;;;;;;5066073;27;87671;-51
2022/04/15 11:27:34;;;;;;;;;;;12.90;56.20;;;;;;5069631;27;86911;-51
2022/04/15 11:30:04;;;;;;;;;;;13.00;56.20;;;;;;5066753;27;87116;-51
2022/04/15 11:32:30;;;;;;;;;;;13.00;56.20;;;;;;5066016;27;88587;-51
2022/04/15 11:35:02;;;;;;;;;;;13.00;56.20;;;;;;5065917;27;87843;-51
2022/04/15 11:37:27;;;;;;;;;;;13.00;56.20;;;;;;5066745;27;87788;-51
2022/04/15 11:39:53;;;;;;;;;;;13.10;56.20;;;;;;5066116;27;86821;-51
2022/04/15 11:42:20;;;;;;;;;;;13.10;56.10;;;;;;5066422;27;86936;-50
2022/04/15 11:44:45;;;;;;;;;;;13.10;56.10;;;;;;5066486;27;88305;-51
2022/04/15 11:47:18;;;;;;;;;;;13.10;56.10;;;;;;5066048;27;88282;-50
2022/04/15 11:49:49;;;;;;;;;;;13.20;56.20;;;;;;5069451;27;86902;-51
2022/04/15 11:52:22;;;;;;;;;;;13.20;56.10;;;;;;5065757;27;87849;-51
2022/04/15 11:54:48;;;;;;;;;;;13.20;56.00;;;;;;5066419;27;87148;-50
2022/04/15 11:57:13;;;;;;;;;;;13.30;56.10;;;;;;5066406;27;88117;-50
2022/04/15 11:59:40;;;;;;;;;;;13.30;56.10;;;;;;5064931;27;88368;-51
2022/04/15 12:02:06;;;;;;;;;;;13.30;56.10;;;;;;5066237;27;87117;-50
2022/04/15 12:04:32;;;;;;;;;;;13.40;56.10;;;;;;5065708;27;87842;-51
2022/04/15 12:06:58;;;;;;;;;;;13.40;56.10;;;;;;5065719;27;86995;-51
2022/04/15 12:09:24;;;;;;;;;;;13.40;56.10;;;;;;5065587;27;87188;-50
2022/04/15 12:11:50;;;;;;;;;;;13.40;56.10;;;;;;5068560;27;87909;-50
2022/04/15 12:14:17;;;;;;;;;;;13.50;56.10;;;;;;5065989;27;87014;-50
2022/04/15 12:16:43;;;;;;;;;;;13.50;56.00;;;;;;5066404;27;88387;-50
2022/04/15 12:19:08;;;;;;;;;;;13.50;55.90;;;;;;5065593;27;87727;-51
2022/04/15 12:21:35;;;;;;;;;;;13.50;55.90;;;;;;5066250;27;86920;-51
2022/04/15 12:24:05;;;;;;;;;;;13.60;55.80;;;;;;5065238;27;87880;-51
2022/04/15 12:27:00;;;;;;;;;;;13.60;55.90;;;;;;5065616;27;88321;-51
2022/04/15 12:32:29;;;;;;;;;;;13.70;55.80;;;;;;5062419;27;86918;-51
2022/04/15 12:34:56;;;;;;;;;;;13.70;55.70;;;;;;5068933;27;88658;-50
2022/04/15 12:37:32;;;;;;;;;;;13.70;55.70;;;;;;5069263;27;87396;-50
2022/04/15 12:39:57;;;;;;;;;;;13.80;55.80;;;;;;5068638;27;88416;-50
2022/04/15 12:42:30;;;;;;;;;;;13.80;55.80;;;;;;5069655;27;86123;-50
2022/04/15 12:44:55;;;;;;;;;;;13.80;55.70;;;;;;5069274;27;87160;-50
2022/04/15 12:47:24;;;;;;;;;;;13.80;55.70;;;;;;5068606;27;88435;-50
2022/04/15 12:49:49;;;;;;;;;;;13.90;55.60;;;;;;5068489;27;88017;-50
2022/04/15 12:52:16;;;;;;;;;;;13.90;55.70;;;;;;5069216;27;87695;-51
2022/04/15 12:54:57;;;;;;;;;;;13.90;55.60;;;;;;5068907;27;87257;-51
2022/04/15 12:57:30;;;;;;;;;;;14.00;55.70;;;;;;5071813;27;86834;-51
2022/04/15 12:59:56;;;;;;;;;;;14.00;55.70;;;;;;5068497;27;88459;-51
2022/04/15 13:02:23;;;;;;;;;;;14.10;55.60;;;;;;5068798;27;86818;-51
2022/04/15 13:04:52;;;;;;;;;;;14.10;55.60;;;;;;5069068;27;86794;-50
2022/04/15 13:07:19;;;;;;;;;;;14.10;55.60;;;;;;5068954;27;87736;-50
2022/04/15 13:09:45;;;;;;;;;;;14.10;55.60;;;;;;5068781;27;86835;-51
2022/04/15 13:12:11;;;;;;;;;;;14.20;55.50;;;;;;5068213;27;87954;-51
2022/04/15 13:14:37;;;;;;;;;;;14.20;55.60;;;;;;5067542;27;89772;-52
2022/04/15 13:20:06;;;;;;;;;;;14.30;55.60;;;;;;5065915;27;86981;-51
2022/04/15 13:25:35;;;;;;;;;;;14.40;55.50;;;;;;5066236;27;86761;-51
2022/04/15 13:31:03;;;;;;;;;;;14.50;55.50;;;;;;5066132;27;86653;-51
2022/04/15 13:36:32;;;;;;;;;;;14.50;55.50;;;;;;5065645;27;86727;-51
2022/04/15 13:42:01;;;;;;;;;;;14.60;55.60;;;;;;5067900;27;87656;-51
2022/04/15 13:47:29;;;;;;;;;;;14.70;55.80;;;;;;5064943;27;86787;-51
2022/04/15 13:58:45;;;;;;;;;;;14.80;55.90;;;;;;5065330;27;86939;-51
2022/04/15 14:04:14;;;;;;;;;;;14.90;55.80;;;;;;5065603;27;86782;-52
2022/04/15 14:09:43;;;;;;;;;;;15.00;56.30;;;;;;5064852;27;87732;-51
2022/04/15 14:15:12;;;;;;;;;;;15.10;55.90;;;;;;5064899;27;86768;-51
2022/04/15 14:20:41;;;;;;;;;;;15.20;55.70;;;;;;5064938;27;86741;-52
2022/04/15 14:26:11;;;;;;;;;;;15.30;55.40;;;;;;5065218;27;86725;-51
2022/04/15 14:31:40;;;;;;;;;;;15.40;55.40;;;;;;5067983;27;86757;-52
2022/04/15 14:37:09;;;;;;;;;;;15.50;55.40;;;;;;5064361;27;87669;-51
2022/04/15 14:42:37;;;;;;;;;;;15.60;55.70;;;;;;5064524;27;87025;-51
2022/04/15 14:48:06;;;;;;;;;;;15.60;55.40;;;;;;5064777;27;86675;-52
2022/04/15 14:53:35;;;;;;;;;;;15.70;55.50;;;;;;5064614;27;86795;-52
2022/04/15 14:59:03;;;;;;;;;;;15.90;55.60;;;;;;5064489;27;86770;-52
2022/04/15 15:04:32;;;;;;;;;;;16.00;55.60;;;;;;5063534;27;87914;-52
2022/04/15 15:10:00;;;;;;;;;;;16.10;56.30;;;;;;5064633;27;86845;-52
2022/04/15 15:15:29;;;;;;;;;;;16.10;55.80;;;;;;5064501;27;86860;-52
2022/04/15 15:20:58;;;;;;;;;;;16.20;56.10;;;;;;5064418;27;86792;-52
2022/04/15 15:32:14;;;;;;;;;;;16.20;56.20;;;;;;5063565;27;87737;-52
2022/04/15 15:37:42;;;;;;;;;;;16.30;56.40;;;;;;5064219;27;86696;-53
2022/04/15 15:43:13;;;;;;;;;;;16.40;56.30;;;;;;5066829;27;86742;-52
2022/04/15 15:48:41;;;;;;;;;;;16.50;56.60;;;;;;5063707;27;87033;-56
2022/04/15 15:54:10;;;;;;;;;;;16.60;49.40;;;;;;5064042;27;86780;-53
2022/04/15 15:59:38;;;;;;;;;;;16.50;52.70;;;;;;5063181;27;87757;-52
2022/04/15 16:05:08;;;;;;;;;;;16.50;54.10;;;;;;5063491;27;86825;-53